Time,TemperatureF,DewpointF,PressureIn,WindDirection,WindDirectionDegrees,WindSpeedMPH,WindSpeedGustMPH,Humidity,HourlyPrecipIn,Conditions,Clouds,dailyrainin,SoftwareType,DateUTC
2013-09-08 00:02:00,-999.0,-99.9,29.92,North,355,0.0,5.0,-999,-99.99,,,-99.99,,2013-09-08 04:02:00,
2013-09-08 00:24:00,75.0,73.0,29.92,North,355,0.0,0.0,92,0.01,,,0.03,,2013-09-08 04:24:00,
2013-09-08 00:54:00,75.0,73.0,29.92,North,355,0.0,0.0,92,0.00,,,0.03,,2013-09-08 04:54:00,
2013-09-08 01:23:00,75.0,73.0,29.92,North,355,0.0,0.0,92,0.00,,,0.03,,2013-09-08 05:23:00,
2013-09-08 01:52:00,75.0,73.0,29.92,North,355,0.0,0.0,92,0.00,,,0.03,,2013-09-08 05:52:00,
2013-09-08 02:13:00,75.0,73.0,29.92,North,355,0.0,0.0,92,0.00,,,0.03,,2013-09-08 06:13:00,
2013-09-08 02:22:00,75.0,72.0,29.91,North,355,0.0,0.0,91,0.00,,,0.03,,2013-09-08 06:22:00,
2013-09-08 02:53:00,75.0,73.0,29.91,North,355,0.0,0.0,92,0.00,,,0.03,,2013-09-08 06:53:00,
2013-09-08 03:12:00,75.0,73.0,29.91,North,355,0.0,0.0,92,0.00,,,0.03,,2013-09-08 07:12:00,
2013-09-08 03:23:00,75.0,72.0,29.91,North,355,0.0,0.0,91,0.00,,,0.03,,2013-09-08 07:23:00,
2013-09-08 03:52:00,75.0,72.0,29.91,North,355,0.0,0.0,91,0.00,,,0.03,,2013-09-08 07:52:00,
2013-09-08 04:22:00,75.0,72.0,29.90,North,355,0.0,0.0,91,0.00,,,0.03,,2013-09-08 08:22:00,
2013-09-08 04:52:00,74.0,71.0,29.89,North,355,0.0,0.0,91,0.00,,,0.03,,2013-09-08 08:52:00,
2013-09-08 05:22:00,74.0,71.0,29.89,North,355,0.0,0.0,90,0.00,,,0.03,,2013-09-08 09:22:00,
2013-09-08 05:54:00,74.0,71.0,29.90,North,355,0.0,0.0,90,0.00,,,0.03,,2013-09-08 09:54:00,
2013-09-08 06:12:00,74.0,71.0,29.90,North,355,0.0,0.0,90,0.00,,,0.03,,2013-09-08 10:12:00,
2013-09-08 06:23:00,74.0,71.0,29.90,North,355,0.0,0.0,91,0.00,,,0.03,,2013-09-08 10:23:00,
2013-09-08 06:53:00,74.0,71.0,29.90,North,355,0.0,0.0,91,0.00,,,0.03,,2013-09-08 10:53:00,
2013-09-08 07:12:00,74.0,71.0,29.90,North,355,0.0,0.0,91,0.00,,,0.03,,2013-09-08 11:12:00,
2013-09-08 07:22:00,74.0,71.0,29.90,North,355,0.0,0.0,91,0.00,,,0.03,,2013-09-08 11:22:00,
2013-09-08 07:52:00,74.0,72.0,29.91,North,355,0.0,0.0,92,0.00,,,0.03,,2013-09-08 11:52:00,
2013-09-08 08:12:00,74.0,72.0,29.91,North,355,0.0,0.0,92,0.00,,,0.03,,2013-09-08 12:12:00,
2013-09-08 08:22:00,74.0,72.0,29.91,North,355,0.0,0.0,92,0.00,,,0.03,,2013-09-08 12:22:00,
2013-09-08 08:52:00,76.0,73.0,29.92,North,5,0.0,1.0,90,0.00,,,0.03,,2013-09-08 12:52:00,
2013-09-08 09:12:00,77.0,74.0,29.92,North,5,0.0,1.0,90,0.00,,,0.03,,2013-09-08 13:12:00,
2013-09-08 09:22:00,78.0,74.0,29.92,North,5,0.0,2.0,87,0.00,,,0.02,,2013-09-08 13:22:00,
2013-09-08 09:52:00,80.0,75.0,29.92,North,5,0.0,5.0,85,0.00,,,0.02,,2013-09-08 13:52:00,
2013-09-08 10:11:00,81.0,75.0,29.93,North,360,1.0,3.0,83,0.00,,,0.02,,2013-09-08 14:11:00,
2013-09-08 10:22:00,82.0,76.0,29.93,North,355,0.0,4.0,82,0.00,,,0.02,,2013-09-08 14:22:00,
2013-09-08 10:52:00,84.0,77.0,29.93,North,5,0.0,4.0,79,0.00,,,0.02,,2013-09-08 14:52:00,
2013-09-08 11:23:00,85.0,75.0,29.93,North,9,1.0,5.0,73,0.00,,,0.02,,2013-09-08 15:23:00,
2013-09-08 11:55:00,86.0,75.0,29.92,North,9,1.0,8.0,71,0.00,,,0.02,,2013-09-08 15:55:00,
2013-09-08 12:24:00,87.0,76.0,29.92,North,351,0.0,8.0,69,0.00,,,0.02,,2013-09-08 16:24:00,
2013-09-08 12:54:00,88.0,74.0,29.91,North,355,0.0,7.0,63,0.00,,,0.02,,2013-09-08 16:54:00,
2013-09-08 13:24:00,89.0,73.0,29.91,NNW,344,0.0,5.0,60,0.00,,,0.02,,2013-09-08 17:24:00,
2013-09-08 13:53:00,90.0,76.0,29.91,ENE,62,0.0,7.0,63,0.00,,,0.02,,2013-09-08 17:53:00,
2013-09-08 14:22:00,89.0,75.0,29.89,North,355,0.0,5.0,64,0.00,,,0.02,,2013-09-08 18:22:00,
2013-09-08 14:52:00,89.0,73.0,29.88,North,355,0.0,4.0,60,0.00,,,0.02,,2013-09-08 18:52:00,
2013-09-08 15:12:00,90.0,77.0,29.86,North,349,0.0,5.0,65,0.00,,,0.02,,2013-09-08 19:12:00,
2013-09-08 15:22:00,91.0,77.0,29.86,North,355,0.0,5.0,64,0.00,,,0.02,,2013-09-08 19:22:00,
2013-09-08 15:52:00,90.0,75.0,29.85,North,355,3.0,8.0,62,0.00,,,0.02,,2013-09-08 19:52:00,
2013-09-08 16:22:00,91.0,76.0,29.84,North,11,4.0,8.0,61,0.00,,,0.02,,2013-09-08 20:22:00,
2013-09-08 16:53:00,89.0,75.0,29.84,North,355,1.0,7.0,63,0.00,,,0.02,,2013-09-08 20:53:00,
2013-09-08 17:22:00,89.0,75.0,29.84,NNW,348,0.0,6.0,63,0.00,,,0.02,,2013-09-08 21:22:00,
2013-09-08 17:54:00,89.0,76.0,29.83,NNW,342,5.0,9.0,66,0.00,,,0.02,,2013-09-08 21:54:00,
2013-09-08 18:25:00,88.0,76.0,29.83,North,5,3.0,7.0,67,0.00,,,0.02,,2013-09-08 22:25:00,
2013-09-08 18:53:00,88.0,77.0,29.84,NNW,336,2.0,6.0,71,0.00,,,0.02,,2013-09-08 22:53:00,
2013-09-08 19:22:00,87.0,76.0,29.84,NNW,340,0.0,6.0,71,0.00,,,0.02,,2013-09-08 23:22:00,
2013-09-08 19:52:00,86.0,76.0,29.84,NNE,19,0.0,3.0,72,0.00,,,0.02,,2013-09-08 23:52:00,
2013-09-08 20:11:00,86.0,76.0,29.85,North,5,0.0,0.0,72,0.00,,,0.02,,2013-09-09 00:11:00,
2013-09-08 20:22:00,85.0,75.0,29.85,North,5,0.0,0.0,73,0.00,,,0.02,,2013-09-09 00:22:00,
2013-09-08 20:52:00,85.0,75.0,29.86,North,5,0.0,0.0,73,0.00,,,0.02,,2013-09-09 00:52:00,
2013-09-08 21:21:00,84.0,75.0,29.88,North,5,0.0,3.0,75,0.00,,,0.01,,2013-09-09 01:21:00,
2013-09-08 21:52:00,83.0,74.0,29.91,ESE,119,0.0,1.0,75,0.00,,,0.01,,2013-09-09 01:52:00,
2013-09-08 22:22:00,83.0,75.0,29.92,North,5,0.0,4.0,76,0.00,,,0.01,,2013-09-09 02:22:00,
2013-09-08 22:42:00,82.0,74.0,29.92,SE,130,0.0,2.0,76,0.00,,,0.01,,2013-09-09 02:42:00,
2013-09-08 22:53:00,81.0,73.0,29.93,SE,136,0.0,5.0,76,0.00,,,0.01,,2013-09-09 02:53:00,
2013-09-08 23:22:00,81.0,73.0,29.93,North,5,0.0,1.0,77,0.00,,,0.01,,2013-09-09 03:22:00,
2013-09-08 23:55:00,80.0,73.0,29.93,East,93,0.0,0.0,79,0.00,,,0.01,,2013-09-09 03:55:00,